sensor_id;sensor_type;location;lat;lon;timestamp;P1;durP1;ratioP1;P2;durP2;ratioP2
39188;SDS011;24915;50.858;4.376;2023-02-01T00:01:26;43.33;;;12.55;;
39188;SDS011;24915;50.858;4.376;2023-02-01T00:03:54;40.60;;;12.93;;
39188;SDS011;24915;50.858;4.376;2023-02-01T00:06:19;42.60;;;12.35;;
39188;SDS011;24915;50.858;4.376;2023-02-01T00:08:47;39.10;;;12.85;;
39188;SDS011;24915;50.858;4.376;2023-02-01T00:11:13;44.90;;;13.43;;
39188;SDS011;24915;50.858;4.376;2023-02-01T00:13:40;34.10;;;12.70;;
39188;SDS011;24915;50.858;4.376;2023-02-01T00:16:07;46.95;;;12.65;;
39188;SDS011;24915;50.858;4.376;2023-02-01T00:18:38;48.25;;;14.82;;
39188;SDS011;24915;50.858;4.376;2023-02-01T00:21:03;46.95;;;14.00;;
39188;SDS011;24915;50.858;4.376;2023-02-01T00:23:32;55.60;;;13.80;;
39188;SDS011;24915;50.858;4.376;2023-02-01T00:26:04;44.47;;;14.05;;
39188;SDS011;24915;50.858;4.376;2023-02-01T00:28:31;39.08;;;12.98;;
39188;SDS011;24915;50.858;4.376;2023-02-01T00:31:00;47.53;;;13.30;;
39188;SDS011;24915;50.858;4.376;2023-02-01T00:33:28;37.38;;;13.60;;
39188;SDS011;24915;50.858;4.376;2023-02-01T00:36:00;43.25;;;13.75;;
39188;SDS011;24915;50.858;4.376;2023-02-01T00:38:28;37.75;;;12.88;;
39188;SDS011;24915;50.858;4.376;2023-02-01T00:41:04;42.70;;;14.18;;
39188;SDS011;24915;50.858;4.376;2023-02-01T00:45:56;40.63;;;13.30;;
39188;SDS011;24915;50.858;4.376;2023-02-01T00:48:22;43.17;;;12.48;;
39188;SDS011;24915;50.858;4.376;2023-02-01T00:50:48;37.95;;;12.05;;
39188;SDS011;24915;50.858;4.376;2023-02-01T00:53:14;35.42;;;10.98;;
39188;SDS011;24915;50.858;4.376;2023-02-01T00:55:39;37.55;;;10.32;;
39188;SDS011;24915;50.858;4.376;2023-02-01T00:58:05;37.85;;;9.63;;
39188;SDS011;24915;50.858;4.376;2023-02-01T01:00:31;41.70;;;9.68;;
39188;SDS011;24915;50.858;4.376;2023-02-01T01:02:57;35.80;;;10.00;;
39188;SDS011;24915;50.858;4.376;2023-02-01T01:05:23;35.55;;;9.60;;
39188;SDS011;24915;50.858;4.376;2023-02-01T01:07:49;36.58;;;9.43;;
39188;SDS011;24915;50.858;4.376;2023-02-01T01:10:17;35.72;;;8.98;;
39188;SDS011;24915;50.858;4.376;2023-02-01T01:12:44;31.58;;;8.73;;
39188;SDS011;24915;50.858;4.376;2023-02-01T01:15:09;36.50;;;9.43;;
39188;SDS011;24915;50.858;4.376;2023-02-01T01:17:35;38.80;;;9.65;;
39188;SDS011;24915;50.858;4.376;2023-02-01T01:20:01;41.70;;;10.10;;
39188;SDS011;24915;50.858;4.376;2023-02-01T01:22:28;39.25;;;9.65;;
39188;SDS011;24915;50.858;4.376;2023-02-01T01:24:53;39.38;;;8.70;;
39188;SDS011;24915;50.858;4.376;2023-02-01T01:27:19;33.25;;;8.65;;
39188;SDS011;24915;50.858;4.376;2023-02-01T01:29:48;27.73;;;7.78;;
39188;SDS011;24915;50.858;4.376;2023-02-01T01:32:15;34.53;;;8.23;;
39188;SDS011;24915;50.858;4.376;2023-02-01T01:34:42;27.95;;;7.57;;
39188;SDS011;24915;50.858;4.376;2023-02-01T01:37:08;37.60;;;6.95;;
39188;SDS011;24915;50.858;4.376;2023-02-01T01:39:34;35.80;;;8.27;;
39188;SDS011;24915;50.858;4.376;2023-02-01T01:41:59;33.22;;;7.07;;
39188;SDS011;24915;50.858;4.376;2023-02-01T01:47:40;26.60;;;6.33;;
39188;SDS011;24915;50.858;4.376;2023-02-01T01:50:12;32.83;;;6.78;;
39188;SDS011;24915;50.858;4.376;2023-02-01T01:52:42;36.55;;;7.05;;
39188;SDS011;24915;50.858;4.376;2023-02-01T01:55:11;30.70;;;6.72;;
39188;SDS011;24915;50.858;4.376;2023-02-01T01:57:39;30.88;;;6.57;;
39188;SDS011;24915;50.858;4.376;2023-02-01T02:00:12;29.23;;;6.50;;
39188;SDS011;24915;50.858;4.376;2023-02-01T02:02:41;32.17;;;6.03;;
39188;SDS011;24915;50.858;4.376;2023-02-01T02:05:09;38.78;;;6.75;;
39188;SDS011;24915;50.858;4.376;2023-02-01T02:07:41;36.00;;;6.13;;
39188;SDS011;24915;50.858;4.376;2023-02-01T02:10:11;36.50;;;6.35;;
39188;SDS011;24915;50.858;4.376;2023-02-01T02:12:38;32.72;;;6.55;;
39188;SDS011;24915;50.858;4.376;2023-02-01T02:15:09;28.90;;;5.65;;
39188;SDS011;24915;50.858;4.376;2023-02-01T02:17:50;26.02;;;6.60;;
39188;SDS011;24915;50.858;4.376;2023-02-01T02:20:58;28.90;;;6.03;;
39188;SDS011;24915;50.858;4.376;2023-02-01T02:34:55;29.77;;;5.95;;
39188;SDS011;24915;50.858;4.376;2023-02-01T02:37:45;32.15;;;6.18;;
39188;SDS011;24915;50.858;4.376;2023-02-01T02:40:39;32.05;;;5.57;;
39188;SDS011;24915;50.858;4.376;2023-02-01T02:46:21;27.40;;;6.00;;
39188;SDS011;24915;50.858;4.376;2023-02-01T02:54:32;25.65;;;6.20;;
39188;SDS011;24915;50.858;4.376;2023-02-01T02:57:12;31.05;;;5.60;;
39188;SDS011;24915;50.858;4.376;2023-02-01T03:00:10;30.45;;;6.40;;
39188;SDS011;24915;50.858;4.376;2023-02-01T03:02:58;27.30;;;5.50;;
39188;SDS011;24915;50.858;4.376;2023-02-01T03:05:43;31.17;;;5.50;;
39188;SDS011;24915;50.858;4.376;2023-02-01T03:08:21;30.92;;;6.30;;
39188;SDS011;24915;50.858;4.376;2023-02-01T03:11:04;35.33;;;5.68;;
39188;SDS011;24915;50.858;4.376;2023-02-01T03:13:40;32.78;;;5.97;;
39188;SDS011;24915;50.858;4.376;2023-02-01T03:21:48;31.95;;;5.22;;
39188;SDS011;24915;50.858;4.376;2023-02-01T03:24:33;28.15;;;5.72;;
39188;SDS011;24915;50.858;4.376;2023-02-01T03:27:08;25.95;;;5.60;;
39188;SDS011;24915;50.858;4.376;2023-02-01T03:29:59;25.80;;;5.30;;
39188;SDS011;24915;50.858;4.376;2023-02-01T03:32:30;34.80;;;5.30;;
39188;SDS011;24915;50.858;4.376;2023-02-01T03:35:17;30.17;;;6.22;;
39188;SDS011;24915;50.858;4.376;2023-02-01T03:37:46;30.95;;;5.35;;
39188;SDS011;24915;50.858;4.376;2023-02-01T03:40:13;35.17;;;5.68;;
39188;SDS011;24915;50.858;4.376;2023-02-01T03:42:44;27.45;;;5.25;;
39188;SDS011;24915;50.858;4.376;2023-02-01T03:45:26;33.17;;;5.60;;
39188;SDS011;24915;50.858;4.376;2023-02-01T03:47:56;31.33;;;6.72;;
39188;SDS011;24915;50.858;4.376;2023-02-01T03:50:25;36.25;;;6.05;;
39188;SDS011;24915;50.858;4.376;2023-02-01T03:53:02;33.13;;;5.25;;
39188;SDS011;24915;50.858;4.376;2023-02-01T03:55:32;38.65;;;5.93;;
39188;SDS011;24915;50.858;4.376;2023-02-01T04:00:27;32.13;;;5.80;;
39188;SDS011;24915;50.858;4.376;2023-02-01T04:02:53;36.05;;;5.40;;
39188;SDS011;24915;50.858;4.376;2023-02-01T04:05:19;29.73;;;5.25;;
39188;SDS011;24915;50.858;4.376;2023-02-01T04:07:48;25.92;;;5.40;;
39188;SDS011;24915;50.858;4.376;2023-02-01T04:10:13;35.20;;;6.05;;
39188;SDS011;24915;50.858;4.376;2023-02-01T04:12:39;28.48;;;5.53;;
39188;SDS011;24915;50.858;4.376;2023-02-01T04:15:05;32.42;;;5.10;;
39188;SDS011;24915;50.858;4.376;2023-02-01T04:17:32;26.15;;;5.13;;
39188;SDS011;24915;50.858;4.376;2023-02-01T04:19:58;37.90;;;5.80;;
39188;SDS011;24915;50.858;4.376;2023-02-01T04:22:23;35.47;;;5.90;;
39188;SDS011;24915;50.858;4.376;2023-02-01T04:24:49;33.22;;;5.18;;
39188;SDS011;24915;50.858;4.376;2023-02-01T04:27:15;31.88;;;5.90;;
39188;SDS011;24915;50.858;4.376;2023-02-01T04:29:41;30.38;;;5.55;;
39188;SDS011;24915;50.858;4.376;2023-02-01T04:32:07;31.67;;;5.82;;
39188;SDS011;24915;50.858;4.376;2023-02-01T04:34:32;28.70;;;5.93;;
39188;SDS011;24915;50.858;4.376;2023-02-01T04:36:58;25.65;;;5.05;;
39188;SDS011;24915;50.858;4.376;2023-02-01T04:39:24;29.10;;;5.45;;
39188;SDS011;24915;50.858;4.376;2023-02-01T04:41:49;35.80;;;6.32;;
39188;SDS011;24915;50.858;4.376;2023-02-01T04:44:16;33.75;;;5.75;;
39188;SDS011;24915;50.858;4.376;2023-02-01T04:46:45;26.00;;;5.85;;
39188;SDS011;24915;50.858;4.376;2023-02-01T04:49:11;36.38;;;5.95;;
39188;SDS011;24915;50.858;4.376;2023-02-01T04:51:38;35.40;;;6.43;;
39188;SDS011;24915;50.858;4.376;2023-02-01T04:54:04;28.15;;;5.22;;
39188;SDS011;24915;50.858;4.376;2023-02-01T04:56:30;36.80;;;5.50;;
39188;SDS011;24915;50.858;4.376;2023-02-01T04:58:58;37.80;;;5.90;;
39188;SDS011;24915;50.858;4.376;2023-02-01T05:01:24;40.30;;;5.32;;
39188;SDS011;24915;50.858;4.376;2023-02-01T05:03:50;41.55;;;6.10;;
39188;SDS011;24915;50.858;4.376;2023-02-01T05:06:16;30.83;;;5.60;;
39188;SDS011;24915;50.858;4.376;2023-02-01T05:08:41;38.00;;;5.68;;
39188;SDS011;24915;50.858;4.376;2023-02-01T05:11:07;33.53;;;5.13;;
39188;SDS011;24915;50.858;4.376;2023-02-01T05:13:53;32.90;;;5.07;;
39188;SDS011;24915;50.858;4.376;2023-02-01T05:16:18;39.60;;;5.25;;
39188;SDS011;24915;50.858;4.376;2023-02-01T05:18:44;31.35;;;5.90;;
39188;SDS011;24915;50.858;4.376;2023-02-01T05:21:12;36.22;;;6.38;;
39188;SDS011;24915;50.858;4.376;2023-02-01T05:23:38;35.10;;;5.65;;
39188;SDS011;24915;50.858;4.376;2023-02-01T05:26:22;31.60;;;5.75;;
39188;SDS011;24915;50.858;4.376;2023-02-01T05:28:48;32.15;;;5.28;;
39188;SDS011;24915;50.858;4.376;2023-02-01T05:31:14;38.83;;;6.18;;
39188;SDS011;24915;50.858;4.376;2023-02-01T05:33:39;43.13;;;7.35;;
39188;SDS011;24915;50.858;4.376;2023-02-01T05:36:05;27.70;;;5.43;;
39188;SDS011;24915;50.858;4.376;2023-02-01T05:38:31;36.10;;;6.43;;
39188;SDS011;24915;50.858;4.376;2023-02-01T05:40:57;37.15;;;5.30;;
39188;SDS011;24915;50.858;4.376;2023-02-01T05:43:22;29.83;;;5.60;;
39188;SDS011;24915;50.858;4.376;2023-02-01T05:45:48;36.58;;;5.68;;
39188;SDS011;24915;50.858;4.376;2023-02-01T05:48:14;40.72;;;6.72;;
39188;SDS011;24915;50.858;4.376;2023-02-01T05:50:39;38.72;;;6.45;;
39188;SDS011;24915;50.858;4.376;2023-02-01T05:53:05;29.20;;;5.10;;
39188;SDS011;24915;50.858;4.376;2023-02-01T05:55:31;34.92;;;5.22;;
39188;SDS011;24915;50.858;4.376;2023-02-01T05:57:57;33.20;;;5.43;;
39188;SDS011;24915;50.858;4.376;2023-02-01T06:00:22;35.33;;;5.20;;
39188;SDS011;24915;50.858;4.376;2023-02-01T06:02:48;39.47;;;6.65;;
39188;SDS011;24915;50.858;4.376;2023-02-01T06:05:14;38.45;;;6.32;;
39188;SDS011;24915;50.858;4.376;2023-02-01T06:07:40;23.25;;;4.40;;
39188;SDS011;24915;50.858;4.376;2023-02-01T06:10:05;30.02;;;5.65;;
39188;SDS011;24915;50.858;4.376;2023-02-01T06:12:31;38.25;;;7.10;;
39188;SDS011;24915;50.858;4.376;2023-02-01T06:14:57;34.42;;;5.93;;
39188;SDS011;24915;50.858;4.376;2023-02-01T06:17:24;39.78;;;6.03;;
39188;SDS011;24915;50.858;4.376;2023-02-01T06:19:50;33.13;;;5.40;;
39188;SDS011;24915;50.858;4.376;2023-02-01T06:22:16;29.92;;;5.88;;
39188;SDS011;24915;50.858;4.376;2023-02-01T06:24:42;37.10;;;6.40;;
39188;SDS011;24915;50.858;4.376;2023-02-01T06:27:08;35.30;;;5.85;;
39188;SDS011;24915;50.858;4.376;2023-02-01T06:29:36;24.88;;;5.18;;
39188;SDS011;24915;50.858;4.376;2023-02-01T06:32:02;46.22;;;5.97;;
39188;SDS011;24915;50.858;4.376;2023-02-01T06:34:28;33.78;;;6.50;;
39188;SDS011;24915;50.858;4.376;2023-02-01T06:36:53;37.28;;;6.30;;
39188;SDS011;24915;50.858;4.376;2023-02-01T06:39:19;44.50;;;5.65;;
39188;SDS011;24915;50.858;4.376;2023-02-01T06:41:49;37.78;;;6.30;;
39188;SDS011;24915;50.858;4.376;2023-02-01T06:44:15;40.50;;;6.40;;
39188;SDS011;24915;50.858;4.376;2023-02-01T06:46:41;42.03;;;5.80;;
39188;SDS011;24915;50.858;4.376;2023-02-01T06:49:07;39.00;;;5.57;;
39188;SDS011;24915;50.858;4.376;2023-02-01T06:51:33;31.17;;;5.32;;
39188;SDS011;24915;50.858;4.376;2023-02-01T06:54:00;34.22;;;5.22;;
39188;SDS011;24915;50.858;4.376;2023-02-01T06:56:26;43.83;;;6.68;;
39188;SDS011;24915;50.858;4.376;2023-02-01T06:58:52;34.83;;;6.35;;
39188;SDS011;24915;50.858;4.376;2023-02-01T07:01:18;37.20;;;6.07;;
39188;SDS011;24915;50.858;4.376;2023-02-01T07:03:47;39.45;;;5.28;;
39188;SDS011;24915;50.858;4.376;2023-02-01T07:06:15;45.00;;;5.60;;
39188;SDS011;24915;50.858;4.376;2023-02-01T07:08:41;36.13;;;6.90;;
39188;SDS011;24915;50.858;4.376;2023-02-01T07:11:08;45.58;;;6.72;;
39188;SDS011;24915;50.858;4.376;2023-02-01T07:13:35;24.35;;;5.07;;
39188;SDS011;24915;50.858;4.376;2023-02-01T07:16:02;35.92;;;5.53;;
39188;SDS011;24915;50.858;4.376;2023-02-01T07:18:30;39.88;;;5.72;;
39188;SDS011;24915;50.858;4.376;2023-02-01T07:20:58;33.50;;;5.97;;
39188;SDS011;24915;50.858;4.376;2023-02-01T07:23:24;39.25;;;6.35;;
39188;SDS011;24915;50.858;4.376;2023-02-01T07:25:58;33.40;;;5.97;;
39188;SDS011;24915;50.858;4.376;2023-02-01T07:28:25;37.33;;;5.68;;
39188;SDS011;24915;50.858;4.376;2023-02-01T07:30:53;43.70;;;5.85;;
39188;SDS011;24915;50.858;4.376;2023-02-01T07:33:24;33.25;;;5.82;;
39188;SDS011;24915;50.858;4.376;2023-02-01T07:35:51;39.97;;;6.68;;
39188;SDS011;24915;50.858;4.376;2023-02-01T07:38:17;36.97;;;6.07;;
39188;SDS011;24915;50.858;4.376;2023-02-01T07:40:43;40.75;;;6.07;;
39188;SDS011;24915;50.858;4.376;2023-02-01T07:43:09;33.17;;;5.40;;
39188;SDS011;24915;50.858;4.376;2023-02-01T07:45:35;44.85;;;6.30;;
39188;SDS011;24915;50.858;4.376;2023-02-01T07:48:01;47.78;;;6.25;;
39188;SDS011;24915;50.858;4.376;2023-02-01T07:50:27;34.47;;;5.40;;
39188;SDS011;24915;50.858;4.376;2023-02-01T07:52:55;43.50;;;6.80;;
39188;SDS011;24915;50.858;4.376;2023-02-01T07:55:27;40.17;;;6.32;;
39188;SDS011;24915;50.858;4.376;2023-02-01T07:57:53;36.25;;;6.00;;
39188;SDS011;24915;50.858;4.376;2023-02-01T08:00:22;34.28;;;7.00;;
39188;SDS011;24915;50.858;4.376;2023-02-01T08:03:06;38.67;;;6.32;;
39188;SDS011;24915;50.858;4.376;2023-02-01T08:05:32;46.42;;;6.38;;
39188;SDS011;24915;50.858;4.376;2023-02-01T08:07:57;33.95;;;6.38;;
39188;SDS011;24915;50.858;4.376;2023-02-01T08:10:23;30.92;;;5.07;;
39188;SDS011;24915;50.858;4.376;2023-02-01T08:12:49;43.22;;;6.53;;
39188;SDS011;24915;50.858;4.376;2023-02-01T08:15:17;39.83;;;6.70;;
39188;SDS011;24915;50.858;4.376;2023-02-01T08:17:49;41.20;;;6.82;;
39188;SDS011;24915;50.858;4.376;2023-02-01T08:20:16;32.75;;;4.65;;
39188;SDS011;24915;50.858;4.376;2023-02-01T08:22:43;38.10;;;6.55;;
39188;SDS011;24915;50.858;4.376;2023-02-01T08:25:09;39.25;;;7.38;;
39188;SDS011;24915;50.858;4.376;2023-02-01T08:27:35;28.58;;;6.00;;
39188;SDS011;24915;50.858;4.376;2023-02-01T08:30:01;38.70;;;6.45;;
39188;SDS011;24915;50.858;4.376;2023-02-01T08:32:28;32.75;;;5.80;;
39188;SDS011;24915;50.858;4.376;2023-02-01T08:34:53;46.90;;;7.38;;
39188;SDS011;24915;50.858;4.376;2023-02-01T08:37:19;32.25;;;5.68;;
39188;SDS011;24915;50.858;4.376;2023-02-01T08:39:45;28.95;;;5.60;;
39188;SDS011;24915;50.858;4.376;2023-02-01T08:42:12;38.78;;;6.40;;
39188;SDS011;24915;50.858;4.376;2023-02-01T08:44:56;30.13;;;5.75;;
39188;SDS011;24915;50.858;4.376;2023-02-01T08:47:24;35.95;;;6.30;;
39188;SDS011;24915;50.858;4.376;2023-02-01T08:49:50;32.50;;;6.15;;
39188;SDS011;24915;50.858;4.376;2023-02-01T08:52:16;39.95;;;7.35;;
39188;SDS011;24915;50.858;4.376;2023-02-01T08:54:42;32.35;;;6.47;;
39188;SDS011;24915;50.858;4.376;2023-02-01T08:57:07;37.53;;;6.65;;
39188;SDS011;24915;50.858;4.376;2023-02-01T08:59:34;32.97;;;7.22;;
39188;SDS011;24915;50.858;4.376;2023-02-01T09:02:00;30.38;;;6.05;;
39188;SDS011;24915;50.858;4.376;2023-02-01T09:04:26;30.17;;;6.60;;
39188;SDS011;24915;50.858;4.376;2023-02-01T09:06:51;32.30;;;5.93;;
39188;SDS011;24915;50.858;4.376;2023-02-01T09:09:20;38.70;;;6.50;;
39188;SDS011;24915;50.858;4.376;2023-02-01T09:11:49;45.15;;;6.70;;
39188;SDS011;24915;50.858;4.376;2023-02-01T09:14:17;36.08;;;6.35;;
39188;SDS011;24915;50.858;4.376;2023-02-01T09:16:43;41.85;;;6.78;;
39188;SDS011;24915;50.858;4.376;2023-02-01T09:19:09;33.30;;;5.53;;
39188;SDS011;24915;50.858;4.376;2023-02-01T09:21:35;27.95;;;6.20;;
39188;SDS011;24915;50.858;4.376;2023-02-01T09:24:00;35.22;;;5.57;;
39188;SDS011;24915;50.858;4.376;2023-02-01T09:26:26;28.63;;;6.03;;
39188;SDS011;24915;50.858;4.376;2023-02-01T09:28:52;34.65;;;7.22;;
39188;SDS011;24915;50.858;4.376;2023-02-01T09:31:18;36.45;;;6.22;;
39188;SDS011;24915;50.858;4.376;2023-02-01T09:33:44;35.72;;;6.38;;
39188;SDS011;24915;50.858;4.376;2023-02-01T09:36:14;39.35;;;6.32;;
39188;SDS011;24915;50.858;4.376;2023-02-01T09:38:39;31.83;;;5.80;;
39188;SDS011;24915;50.858;4.376;2023-02-01T09:41:29;36.25;;;6.20;;
39188;SDS011;24915;50.858;4.376;2023-02-01T09:44:24;35.75;;;6.18;;
39188;SDS011;24915;50.858;4.376;2023-02-01T09:47:14;34.75;;;6.53;;
39188;SDS011;24915;50.858;4.376;2023-02-01T09:49:55;33.08;;;6.07;;
39188;SDS011;24915;50.858;4.376;2023-02-01T09:52:23;33.97;;;6.80;;
39188;SDS011;24915;50.858;4.376;2023-02-01T09:54:55;26.42;;;4.28;;
39188;SDS011;24915;50.858;4.376;2023-02-01T09:57:31;38.92;;;7.25;;
39188;SDS011;24915;50.858;4.376;2023-02-01T10:03:12;32.25;;;6.18;;
39188;SDS011;24915;50.858;4.376;2023-02-01T10:11:18;35.05;;;5.80;;
39188;SDS011;24915;50.858;4.376;2023-02-01T10:14:17;27.80;;;6.50;;
39188;SDS011;24915;50.858;4.376;2023-02-01T10:16:54;36.25;;;6.15;;
39188;SDS011;24915;50.858;4.376;2023-02-01T10:22:01;29.98;;;5.18;;
39188;SDS011;24915;50.858;4.376;2023-02-01T10:24:36;30.73;;;5.60;;
39188;SDS011;24915;50.858;4.376;2023-02-01T10:29:39;30.77;;;5.47;;
39188;SDS011;24915;50.858;4.376;2023-02-01T10:32:14;35.35;;;4.80;;
39188;SDS011;24915;50.858;4.376;2023-02-01T10:34:55;32.90;;;5.35;;
39188;SDS011;24915;50.858;4.376;2023-02-01T10:37:30;33.80;;;5.20;;
39188;SDS011;24915;50.858;4.376;2023-02-01T10:40:19;25.60;;;5.20;;
39188;SDS011;24915;50.858;4.376;2023-02-01T10:42:47;21.60;;;4.65;;
39188;SDS011;24915;50.858;4.376;2023-02-01T10:45:25;29.92;;;5.28;;
39188;SDS011;24915;50.858;4.376;2023-02-01T10:47:55;23.20;;;4.70;;
39188;SDS011;24915;50.858;4.376;2023-02-01T10:53:24;26.60;;;4.57;;
39188;SDS011;24915;50.858;4.376;2023-02-01T10:55:54;20.73;;;5.20;;
39188;SDS011;24915;50.858;4.376;2023-02-01T11:00:52;25.90;;;5.10;;
39188;SDS011;24915;50.858;4.376;2023-02-01T11:06:00;22.75;;;4.90;;
39188;SDS011;24915;50.858;4.376;2023-02-01T11:08:33;18.65;;;4.05;;
39188;SDS011;24915;50.858;4.376;2023-02-01T11:11:06;21.10;;;4.22;;
39188;SDS011;24915;50.858;4.376;2023-02-01T11:13:36;29.98;;;4.28;;
39188;SDS011;24915;50.858;4.376;2023-02-01T11:16:04;17.05;;;4.03;;
39188;SDS011;24915;50.858;4.376;2023-02-01T11:18:33;26.08;;;4.72;;
39188;SDS011;24915;50.858;4.376;2023-02-01T11:21:01;21.23;;;4.38;;
39188;SDS011;24915;50.858;4.376;2023-02-01T11:23:30;23.52;;;4.55;;
39188;SDS011;24915;50.858;4.376;2023-02-01T11:26:07;24.67;;;4.88;;
39188;SDS011;24915;50.858;4.376;2023-02-01T11:28:37;28.55;;;5.32;;
39188;SDS011;24915;50.858;4.376;2023-02-01T11:31:05;23.75;;;4.85;;
39188;SDS011;24915;50.858;4.376;2023-02-01T11:33:37;26.30;;;6.15;;
39188;SDS011;24915;50.858;4.376;2023-02-01T11:36:07;26.75;;;4.75;;
39188;SDS011;24915;50.858;4.376;2023-02-01T11:38:35;28.70;;;5.53;;
39188;SDS011;24915;50.858;4.376;2023-02-01T11:41:11;24.90;;;5.05;;
39188;SDS011;24915;50.858;4.376;2023-02-01T11:43:49;26.55;;;5.45;;
39188;SDS011;24915;50.858;4.376;2023-02-01T11:46:31;22.85;;;4.65;;
39188;SDS011;24915;50.858;4.376;2023-02-01T11:49:23;29.98;;;6.32;;
39188;SDS011;24915;50.858;4.376;2023-02-01T11:52:03;18.10;;;3.70;;
39188;SDS011;24915;50.858;4.376;2023-02-01T12:02:54;31.10;;;5.13;;
39188;SDS011;24915;50.858;4.376;2023-02-01T12:05:59;14.35;;;4.13;;
39188;SDS011;24915;50.858;4.376;2023-02-01T12:11:41;19.95;;;4.28;;
39188;SDS011;24915;50.858;4.376;2023-02-01T12:14:19;16.07;;;4.10;;
39188;SDS011;24915;50.858;4.376;2023-02-01T12:20:12;19.63;;;4.43;;
39188;SDS011;24915;50.858;4.376;2023-02-01T12:22:55;15.93;;;3.90;;
39188;SDS011;24915;50.858;4.376;2023-02-01T12:42:47;15.48;;;3.97;;
39188;SDS011;24915;50.858;4.376;2023-02-01T12:48:50;16.73;;;3.50;;
39188;SDS011;24915;50.858;4.376;2023-02-01T12:51:28;18.38;;;4.40;;
39188;SDS011;24915;50.858;4.376;2023-02-01T12:56:51;17.75;;;3.40;;
39188;SDS011;24915;50.858;4.376;2023-02-01T12:59:44;15.27;;;3.00;;
39188;SDS011;24915;50.858;4.376;2023-02-01T13:07:43;10.05;;;2.97;;
39188;SDS011;24915;50.858;4.376;2023-02-01T13:10:21;11.43;;;3.40;;
39188;SDS011;24915;50.858;4.376;2023-02-01T13:13:02;12.48;;;3.28;;
39188;SDS011;24915;50.858;4.376;2023-02-01T13:15:54;9.80;;;2.40;;
39188;SDS011;24915;50.858;4.376;2023-02-01T13:18:21;12.60;;;3.47;;
39188;SDS011;24915;50.858;4.376;2023-02-01T13:21:08;17.20;;;3.22;;
39188;SDS011;24915;50.858;4.376;2023-02-01T13:23:43;12.40;;;3.22;;
39188;SDS011;24915;50.858;4.376;2023-02-01T13:26:13;16.02;;;3.28;;
39188;SDS011;24915;50.858;4.376;2023-02-01T13:28:49;14.20;;;3.50;;
39188;SDS011;24915;50.858;4.376;2023-02-01T13:42:22;19.05;;;4.38;;
39188;SDS011;24915;50.858;4.376;2023-02-01T13:44:59;12.13;;;3.78;;
39188;SDS011;24915;50.858;4.376;2023-02-01T13:50:02;18.00;;;3.60;;
39188;SDS011;24915;50.858;4.376;2023-02-01T13:52:45;9.90;;;2.95;;
39188;SDS011;24915;50.858;4.376;2023-02-01T13:57:48;12.23;;;3.72;;
39188;SDS011;24915;50.858;4.376;2023-02-01T14:00:29;12.93;;;4.03;;
39188;SDS011;24915;50.858;4.376;2023-02-01T14:18:48;15.15;;;3.83;;
39188;SDS011;24915;50.858;4.376;2023-02-01T14:21:31;18.33;;;4.15;;
39188;SDS011;24915;50.858;4.376;2023-02-01T14:26:48;13.18;;;4.38;;
39188;SDS011;24915;50.858;4.376;2023-02-01T14:32:01;15.20;;;3.78;;
39188;SDS011;24915;50.858;4.376;2023-02-01T14:42:21;16.63;;;4.85;;
39188;SDS011;24915;50.858;4.376;2023-02-01T14:44:54;19.20;;;4.43;;
39188;SDS011;24915;50.858;4.376;2023-02-01T14:47:40;20.00;;;4.15;;
39188;SDS011;24915;50.858;4.376;2023-02-01T14:53:04;20.08;;;3.72;;
39188;SDS011;24915;50.858;4.376;2023-02-01T15:01:27;29.90;;;10.40;;
39188;SDS011;24915;50.858;4.376;2023-02-01T15:04:08;25.20;;;6.60;;
39188;SDS011;24915;50.858;4.376;2023-02-01T15:06:46;19.58;;;4.40;;
39188;SDS011;24915;50.858;4.376;2023-02-01T15:09:27;18.88;;;4.30;;
39188;SDS011;24915;50.858;4.376;2023-02-01T15:12:04;22.77;;;6.97;;
39188;SDS011;24915;50.858;4.376;2023-02-01T15:14:38;20.20;;;5.22;;
39188;SDS011;24915;50.858;4.376;2023-02-01T15:17:27;22.65;;;4.75;;
39188;SDS011;24915;50.858;4.376;2023-02-01T15:22:53;23.60;;;4.50;;
39188;SDS011;24915;50.858;4.376;2023-02-01T15:25:24;20.63;;;5.35;;
39188;SDS011;24915;50.858;4.376;2023-02-01T15:27:55;22.25;;;5.88;;
39188;SDS011;24915;50.858;4.376;2023-02-01T15:30:23;30.10;;;4.40;;
39188;SDS011;24915;50.858;4.376;2023-02-01T15:32:51;23.08;;;5.38;;
39188;SDS011;24915;50.858;4.376;2023-02-01T15:40:59;26.98;;;6.32;;
39188;SDS011;24915;50.858;4.376;2023-02-01T15:44:04;19.08;;;5.03;;
39188;SDS011;24915;50.858;4.376;2023-02-01T15:46:40;22.70;;;7.60;;
39188;SDS011;24915;50.858;4.376;2023-02-01T15:49:19;21.80;;;6.95;;
39188;SDS011;24915;50.858;4.376;2023-02-01T15:51:49;25.58;;;6.38;;
39188;SDS011;24915;50.858;4.376;2023-02-01T15:54:19;23.10;;;5.35;;
39188;SDS011;24915;50.858;4.376;2023-02-01T15:56:55;23.83;;;4.43;;
39188;SDS011;24915;50.858;4.376;2023-02-01T15:59:24;27.27;;;5.38;;
39188;SDS011;24915;50.858;4.376;2023-02-01T16:01:54;18.80;;;4.28;;
39188;SDS011;24915;50.858;4.376;2023-02-01T16:04:24;20.50;;;4.88;;
39188;SDS011;24915;50.858;4.376;2023-02-01T16:06:56;27.15;;;6.05;;
39188;SDS011;24915;50.858;4.376;2023-02-01T16:09:38;32.58;;;5.95;;
39188;SDS011;24915;50.858;4.376;2023-02-01T16:14:56;23.52;;;6.93;;
39188;SDS011;24915;50.858;4.376;2023-02-01T16:17:21;25.67;;;6.18;;
39188;SDS011;24915;50.858;4.376;2023-02-01T16:19:47;30.77;;;6.82;;
39188;SDS011;24915;50.858;4.376;2023-02-01T16:22:13;21.15;;;5.25;;
39188;SDS011;24915;50.858;4.376;2023-02-01T16:24:38;27.23;;;6.43;;
39188;SDS011;24915;50.858;4.376;2023-02-01T16:27:06;23.77;;;5.60;;
39188;SDS011;24915;50.858;4.376;2023-02-01T16:29:32;23.58;;;5.15;;
39188;SDS011;24915;50.858;4.376;2023-02-01T16:32:00;28.60;;;5.15;;
39188;SDS011;24915;50.858;4.376;2023-02-01T16:34:26;24.63;;;5.13;;
39188;SDS011;24915;50.858;4.376;2023-02-01T16:36:54;23.95;;;5.47;;
39188;SDS011;24915;50.858;4.376;2023-02-01T16:39:22;26.08;;;5.88;;
39188;SDS011;24915;50.858;4.376;2023-02-01T16:41:48;27.02;;;7.63;;
39188;SDS011;24915;50.858;4.376;2023-02-01T16:44:14;28.95;;;7.35;;
39188;SDS011;24915;50.858;4.376;2023-02-01T16:46:40;33.35;;;6.78;;
39188;SDS011;24915;50.858;4.376;2023-02-01T16:49:22;31.30;;;6.05;;
39188;SDS011;24915;50.858;4.376;2023-02-01T16:51:49;34.97;;;6.72;;
39188;SDS011;24915;50.858;4.376;2023-02-01T16:54:18;28.67;;;6.35;;
39188;SDS011;24915;50.858;4.376;2023-02-01T16:56:45;24.50;;;5.82;;
39188;SDS011;24915;50.858;4.376;2023-02-01T16:59:11;34.53;;;6.75;;
39188;SDS011;24915;50.858;4.376;2023-02-01T17:01:40;27.20;;;6.53;;
39188;SDS011;24915;50.858;4.376;2023-02-01T17:04:08;22.38;;;5.15;;
39188;SDS011;24915;50.858;4.376;2023-02-01T17:06:34;24.20;;;6.78;;
39188;SDS011;24915;50.858;4.376;2023-02-01T17:09:01;31.55;;;6.80;;
39188;SDS011;24915;50.858;4.376;2023-02-01T17:11:30;27.88;;;5.93;;
39188;SDS011;24915;50.858;4.376;2023-02-01T17:13:56;32.83;;;5.72;;
39188;SDS011;24915;50.858;4.376;2023-02-01T17:16:33;35.05;;;6.45;;
39188;SDS011;24915;50.858;4.376;2023-02-01T17:19:05;32.83;;;8.00;;
39188;SDS011;24915;50.858;4.376;2023-02-01T17:21:38;28.60;;;6.30;;
39188;SDS011;24915;50.858;4.376;2023-02-01T17:24:09;27.73;;;6.10;;
39188;SDS011;24915;50.858;4.376;2023-02-01T17:26:38;26.90;;;7.05;;
39188;SDS011;24915;50.858;4.376;2023-02-01T17:29:03;35.28;;;6.15;;
39188;SDS011;24915;50.858;4.376;2023-02-01T17:31:32;27.10;;;5.90;;
39188;SDS011;24915;50.858;4.376;2023-02-01T17:34:01;30.42;;;7.05;;
39188;SDS011;24915;50.858;4.376;2023-02-01T17:36:27;34.15;;;7.45;;
39188;SDS011;24915;50.858;4.376;2023-02-01T17:38:52;26.13;;;5.70;;